Time;durP1;ratioP1;P1;durP2;ratioP2;P2;SDS_P1;SDS_P2;PMS_P1;PMS_P2;Temp;Humidity;BMP_temperature;BMP_pressure;BME280_temperature;BME280_humidity;BME280_pressure;Samples;Min_cycle;Max_cycle;Signal;HPM_P1;HPM_P2
2021/10/12 00:00:57;;;;;;;4.70;4.30;;;14.00;92.00;;;;;;4989594;28;20586;-62
2021/10/12 00:03:29;;;;;;;3.90;3.50;;;14.00;92.20;;;;;;4987196;28;20518;-61
2021/10/12 00:06:02;;;;;;;4.13;3.77;;;14.00;93.10;;;;;;4991834;28;20466;-59
2021/10/12 00:08:35;;;;;;;4.20;3.80;;;13.90;91.30;;;;;;4991691;28;20455;-61
2021/10/12 00:11:07;;;;;;;3.17;2.97;;;14.00;91.00;;;;;;4978411;28;20478;-62
2021/10/12 00:13:38;;;;;;;5.47;3.40;;;13.90;90.40;;;;;;4989870;28;20568;-61
2021/10/12 00:16:09;;;;;;;4.23;3.47;;;13.70;91.60;;;;;;4985262;28;20782;-63
2021/10/12 00:18:40;;;;;;;3.70;3.40;;;13.70;92.20;;;;;;4997494;28;20552;-62
2021/10/12 00:21:13;;;;;;;4.77;4.37;;;13.70;91.50;;;;;;4986120;28;20498;-62
2021/10/12 00:23:44;;;;;;;3.63;3.33;;;13.50;92.40;;;;;;4991856;28;20478;-62
2021/10/12 00:26:16;;;;;;;3.20;2.97;;;13.50;91.40;;;;;;4994344;28;20485;-62
2021/10/12 00:28:48;;;;;;;3.40;3.00;;;13.50;91.30;;;;;;5003235;28;20473;-61
2021/10/12 00:31:19;;;;;;;3.10;2.90;;;13.40;91.30;;;;;;4982185;28;20957;-62
2021/10/12 00:33:50;;;;;;;2.60;2.40;;;13.40;90.20;;;;;;4988589;28;20889;-62
2021/10/12 00:36:23;;;;;;;3.20;2.93;;;13.30;90.90;;;;;;4992231;28;20458;-59
2021/10/12 00:38:54;;;;;;;3.07;2.80;;;13.30;90.00;;;;;;4991065;28;20477;-60
2021/10/12 00:41:25;;;;;;;3.00;2.70;;;13.30;89.60;;;;;;4991295;28;20486;-54
2021/10/12 00:43:56;;;;;;;3.00;2.60;;;13.30;89.20;;;;;;4985327;28;20936;-59
2021/10/12 00:46:27;;;;;;;5.97;2.90;;;13.20;88.60;;;;;;4988990;28;20802;-60
2021/10/12 00:48:59;;;;;;;2.80;2.60;;;13.10;90.80;;;;;;5002999;28;20451;-60
2021/10/12 00:51:32;;;;;;;2.23;1.97;;;13.10;89.50;;;;;;4990202;28;20562;-62
2021/10/12 00:54:03;;;;;;;2.10;2.00;;;12.90;90.40;;;;;;4990338;28;20788;-61
2021/10/12 00:56:34;;;;;;;2.73;2.33;;;12.80;88.70;;;;;;4990801;28;20493;-65
2021/10/12 00:59:06;;;;;;;2.87;2.53;;;12.80;88.40;;;;;;4990628;28;20466;-62
2021/10/12 01:01:39;;;;;;;2.00;1.70;;;12.80;89.10;;;;;;4999887;28;20486;-62
2021/10/12 01:04:11;;;;;;;2.17;2.07;;;12.70;90.30;;;;;;4983158;28;20929;-63
2021/10/12 01:06:44;;;;;;;2.47;2.27;;;12.60;88.90;;;;;;4984097;28;20466;-62
2021/10/12 01:09:15;;;;;;;4.43;2.47;;;12.60;90.50;;;;;;4991325;28;20455;-64
2021/10/12 01:11:47;;;;;;;3.00;2.40;;;12.50;89.80;;;;;;4991488;28;20466;-62
2021/10/12 01:14:18;;;;;;;2.83;2.00;;;12.40;91.40;;;;;;4979760;28;20458;-63
2021/10/12 01:16:49;;;;;;;2.13;1.93;;;12.30;91.50;;;;;;4991661;28;20458;-63
2021/10/12 01:19:20;;;;;;;2.23;2.03;;;12.20;92.10;;;;;;5001310;28;20549;-63
2021/10/12 01:21:53;;;;;;;2.93;2.17;;;12.10;92.30;;;;;;4991260;28;20486;-67
2021/10/12 01:24:24;;;;;;;2.60;2.40;;;12.10;92.30;;;;;;4980509;28;20482;-61
2021/10/12 01:26:56;;;;;;;2.40;2.20;;;12.00;92.90;;;;;;4994474;28;20469;-62
2021/10/12 01:29:27;;;;;;;2.47;2.27;;;11.80;93.90;;;;;;4987984;28;20565;-62
2021/10/12 01:31:59;;;;;;;2.60;2.40;;;11.70;94.00;;;;;;4995986;28;20465;-62
2021/10/12 01:34:30;;;;;;;3.00;2.70;;;11.60;95.10;;;;;;4987085;28;20490;-62
2021/10/12 01:37:02;;;;;;;2.63;2.30;;;11.60;96.00;;;;;;4991004;28;20925;-63
2021/10/12 01:39:34;;;;;;;2.60;2.20;;;11.50;98.40;;;;;;4988100;28;20502;-63
2021/10/12 01:42:05;;;;;;;2.73;2.53;;;11.40;99.90;;;;;;4987266;28;20496;-63
2021/10/12 01:44:37;;;;;;;3.03;2.83;;;11.20;99.90;;;;;;4990558;28;20463;-60
2021/10/12 01:47:08;;;;;;;2.70;2.50;;;11.10;99.90;;;;;;4993606;28;20461;-62
2021/10/12 01:49:39;;;;;;;5.57;3.10;;;11.00;99.90;;;;;;4987862;28;20478;-63
2021/10/12 01:52:15;;;;;;;3.30;3.00;;;10.90;99.90;;;;;;5000745;28;20471;-63
2021/10/12 01:54:46;;;;;;;3.47;3.17;;;10.70;99.90;;;;;;4988873;28;20472;-63
2021/10/12 01:57:18;;;;;;;3.10;2.90;;;10.60;99.90;;;;;;4990378;28;20558;-63
2021/10/12 01:59:49;;;;;;;4.20;3.60;;;10.50;99.90;;;;;;4990658;28;20455;-63
2021/10/12 02:02:20;;;;;;;5.38;3.55;;;10.40;99.90;;;;;;4989598;28;20822;-62
2021/10/12 02:04:51;;;;;;;3.63;3.33;;;10.30;99.90;;;;;;4988728;28;20562;-62
2021/10/12 02:07:24;;;;;;;3.97;3.67;;;10.20;99.90;;;;;;4990379;28;20470;-62
2021/10/12 02:09:55;;;;;;;3.95;3.50;;;10.00;99.90;;;;;;4990709;28;20481;-62
2021/10/12 02:12:26;;;;;;;4.17;3.87;;;9.90;99.90;;;;;;4989818;28;20230;-62
2021/10/12 02:14:59;;;;;;;5.63;5.07;;;9.90;99.90;;;;;;4988151;28;20975;-63
2021/10/12 02:17:30;;;;;;;5.77;5.33;;;9.80;99.90;;;;;;4987710;28;20275;-62
2021/10/12 02:20:01;;;;;;;7.47;5.80;;;9.80;99.90;;;;;;4990258;28;20459;-63
2021/10/12 02:22:34;;;;;;;6.78;6.18;;;9.70;99.90;;;;;;4986193;28;20224;-61
2021/10/12 02:25:06;;;;;;;7.00;6.40;;;9.70;99.90;;;;;;4989228;28;20654;-62
2021/10/12 02:27:37;;;;;;;6.70;6.20;;;9.60;99.90;;;;;;4987712;28;20569;-62
2021/10/12 02:30:10;;;;;;;6.70;6.20;;;9.50;99.90;;;;;;4990222;28;20480;-62
2021/10/12 02:32:41;;;;;;;13.60;6.85;;;9.40;99.90;;;;;;4985154;28;20226;-62
2021/10/12 02:35:12;;;;;;;6.95;6.45;;;9.40;99.90;;;;;;4980652;28;20303;-62
2021/10/12 02:37:45;;;;;;;7.15;6.50;;;9.30;99.90;;;;;;4989039;28;20686;-64
2021/10/12 02:40:16;;;;;;;7.18;6.57;;;9.30;99.90;;;;;;4986990;28;20215;-64
2021/10/12 02:42:47;;;;;;;7.38;6.07;;;9.20;99.90;;;;;;4983399;28;20242;-64
2021/10/12 02:45:18;;;;;;;7.45;6.75;;;9.10;99.90;;;;;;4981193;28;20724;-67
2021/10/12 02:47:49;;;;;;;7.88;7.18;;;9.10;99.90;;;;;;4983085;28;20234;-68
2021/10/12 02:50:20;;;;;;;7.25;6.55;;;9.10;99.90;;;;;;4971676;28;20224;-68
2021/10/12 02:52:58;;;;;;;7.32;6.63;;;9.00;99.90;;;;;;4981012;28;20215;-69
2021/10/12 02:55:29;;;;;;;8.73;6.53;;;9.00;99.90;;;;;;4989825;28;20246;-68
2021/10/12 02:58:00;;;;;;;7.45;6.78;;;9.00;99.90;;;;;;4984706;28;20219;-68
2021/10/12 03:00:31;;;;;;;8.15;7.38;;;8.90;99.90;;;;;;4990185;28;20692;-68
2021/10/12 03:03:02;;;;;;;7.40;6.72;;;8.80;99.90;;;;;;4979570;28;20227;-68
2021/10/12 03:05:32;;;;;;;8.23;7.30;;;8.80;99.90;;;;;;4980457;28;20602;-68
2021/10/12 03:08:05;;;;;;;8.35;7.22;;;8.70;99.90;;;;;;4983792;28;20223;-68
2021/10/12 03:10:36;;;;;;;7.60;6.95;;;8.70;99.90;;;;;;4980855;28;20228;-68
2021/10/12 03:13:07;;;;;;;9.57;8.68;;;8.60;99.90;;;;;;4984640;28;20219;-68
2021/10/12 03:15:39;;;;;;;8.23;7.43;;;8.60;99.90;;;;;;4989868;28;20211;-68
2021/10/12 03:18:09;;;;;;;7.75;7.00;;;8.50;99.90;;;;;;4982154;28;20230;-68
2021/10/12 03:20:40;;;;;;;8.25;7.55;;;8.40;99.90;;;;;;4985867;28;20674;-68
2021/10/12 03:23:13;;;;;;;7.65;7.00;;;8.40;99.90;;;;;;4986966;28;20231;-68
2021/10/12 03:25:44;;;;;;;11.15;8.73;;;8.40;99.90;;;;;;4986311;28;20674;-68
2021/10/12 03:28:14;;;;;;;8.13;7.47;;;8.30;99.90;;;;;;4975201;28;20701;-68
2021/10/12 03:30:45;;;;;;;8.48;7.75;;;8.20;99.90;;;;;;4984581;28;20242;-68
2021/10/12 03:33:16;;;;;;;8.50;7.80;;;8.20;99.90;;;;;;4990690;28;20576;-68
2021/10/12 03:35:53;;;;;;;9.57;8.10;;;8.20;99.90;;;;;;4987966;28;20224;-67
2021/10/12 03:38:26;;;;;;;9.40;8.50;;;8.20;99.90;;;;;;5000807;28;20235;-68
2021/10/12 03:40:57;;;;;;;9.38;8.38;;;8.20;99.90;;;;;;4980657;28;20223;-66
2021/10/12 03:43:28;;;;;;;11.45;10.13;;;8.10;99.90;;;;;;4986198;28;20257;-67
2021/10/12 03:45:59;;;;;;;9.00;8.07;;;8.10;99.90;;;;;;4991473;28;20226;-67
2021/10/12 03:48:29;;;;;;;9.75;8.82;;;8.10;99.90;;;;;;4988060;28;20224;-67
2021/10/12 03:51:00;;;;;;;10.00;9.10;;;8.00;99.90;;;;;;4998089;28;20222;-66
2021/10/12 03:53:33;;;;;;;11.50;10.40;;;8.00;99.90;;;;;;4984720;28;20223;-66
2021/10/12 03:56:04;;;;;;;10.77;9.63;;;7.90;99.90;;;;;;4982858;28;20641;-67
2021/10/12 03:58:35;;;;;;;11.32;9.65;;;7.90;99.90;;;;;;4988745;28;20442;-68
2021/10/12 04:01:06;;;;;;;11.80;8.68;;;7.90;99.90;;;;;;4985643;28;20212;-67
2021/10/12 04:03:37;;;;;;;11.70;9.20;;;7.90;99.90;;;;;;4991878;28;20238;-67
2021/10/12 04:06:08;;;;;;;10.82;9.18;;;7.80;99.90;;;;;;4990562;28;20316;-68
2021/10/12 04:08:41;;;;;;;11.23;9.88;;;7.80;99.90;;;;;;4985613;28;20800;-67
2021/10/12 04:11:11;;;;;;;10.98;9.35;;;7.70;99.90;;;;;;4990632;28;20230;-67
2021/10/12 04:13:42;;;;;;;10.10;8.98;;;7.70;99.90;;;;;;4979727;28;20212;-67
2021/10/12 04:16:16;;;;;;;17.02;9.93;;;7.60;99.90;;;;;;4988569;28;20619;-67
2021/10/12 04:18:47;;;;;;;12.35;10.88;;;7.60;99.90;;;;;;4987631;28;20216;-67
2021/10/12 04:21:18;;;;;;;14.10;11.27;;;7.60;99.90;;;;;;4986738;28;20230;-68
2021/10/12 04:23:50;;;;;;;14.98;11.32;;;7.60;99.90;;;;;;4990292;28;20254;-67
2021/10/12 04:26:24;;;;;;;14.68;12.55;;;7.50;99.90;;;;;;4990793;28;20243;-68
2021/10/12 04:28:55;;;;;;;15.50;13.90;;;7.50;99.90;;;;;;4991767;28;20559;-68
2021/10/12 04:31:26;;;;;;;17.38;14.05;;;7.40;99.90;;;;;;4982939;28;20220;-67
2021/10/12 04:33:56;;;;;;;20.10;14.18;;;7.40;99.90;;;;;;4989232;28;20315;-67
2021/10/12 04:36:27;;;;;;;15.27;13.57;;;7.30;99.90;;;;;;4990070;28;20219;-68
2021/10/12 04:39:00;;;;;;;23.38;14.50;;;7.30;99.90;;;;;;4992460;28;20215;-66
2021/10/12 04:41:31;;;;;;;19.08;15.18;;;7.20;99.90;;;;;;4991299;28;20223;-66
2021/10/12 04:44:02;;;;;;;22.67;15.23;;;7.20;99.90;;;;;;4990099;28;20705;-67
2021/10/12 04:46:33;;;;;;;21.85;16.05;;;7.20;99.90;;;;;;4987717;28;20239;-66
2021/10/12 04:49:04;;;;;;;18.25;16.23;;;7.20;99.90;;;;;;4990833;28;20282;-65
2021/10/12 04:51:34;;;;;;;25.10;15.50;;;7.10;99.90;;;;;;4991623;28;20212;-66
2021/10/12 04:54:07;;;;;;;20.60;15.52;;;7.10;99.90;;;;;;4956919;28;20240;-66
2021/10/12 04:56:38;;;;;;;18.08;14.25;;;7.10;99.90;;;;;;4972060;28;20267;-66
2021/10/12 04:59:09;;;;;;;19.20;16.17;;;7.10;99.90;;;;;;4968491;28;20243;-66
2021/10/12 05:01:40;;;;;;;20.10;16.30;;;7.00;99.90;;;;;;4972139;28;20694;-67
2021/10/12 05:04:10;;;;;;;21.13;15.38;;;7.00;99.90;;;;;;4967504;28;20235;-66
2021/10/12 05:06:41;;;;;;;21.83;16.13;;;6.90;99.90;;;;;;4972476;28;20216;-66
2021/10/12 05:09:14;;;;;;;19.17;15.68;;;6.90;99.90;;;;;;4968688;28;20217;-67
2021/10/12 05:11:44;;;;;;;24.83;16.55;;;6.90;99.90;;;;;;4964373;28;20306;-67
2021/10/12 05:14:17;;;;;;;20.08;15.63;;;6.90;99.90;;;;;;4971720;28;20548;-67
2021/10/12 05:16:51;;;;;;;17.33;14.15;;;6.90;99.90;;;;;;4969838;28;20322;-67
2021/10/12 05:19:21;;;;;;;16.58;12.90;;;6.90;99.90;;;;;;4971272;28;20285;-67
2021/10/12 05:21:52;;;;;;;15.10;13.30;;;6.90;99.90;;;;;;4972043;28;20223;-66
2021/10/12 05:24:24;;;;;;;13.68;11.63;;;6.90;99.90;;;;;;4966167;28;20236;-67
2021/10/12 05:26:55;;;;;;;17.58;13.25;;;6.80;99.90;;;;;;4970245;28;20216;-67
2021/10/12 05:29:26;;;;;;;19.23;13.80;;;6.70;99.90;;;;;;4971280;28;20219;-67
2021/10/12 05:31:57;;;;;;;17.83;13.82;;;6.60;99.90;;;;;;4972069;28;20212;-67
2021/10/12 05:34:28;;;;;;;18.95;13.43;;;6.50;99.90;;;;;;4971406;28;20216;-67
2021/10/12 05:36:58;;;;;;;16.02;14.18;;;6.50;99.90;;;;;;4971609;28;20216;-66
2021/10/12 05:39:31;;;;;;;18.02;15.65;;;6.40;99.90;;;;;;4962859;28;20621;-67
2021/10/12 05:42:02;;;;;;;18.45;13.15;;;6.50;99.90;;;;;;4972015;28;20216;-67
2021/10/12 05:44:32;;;;;;;17.00;13.55;;;6.40;99.90;;;;;;4968214;28;20237;-67
2021/10/12 05:47:03;;;;;;;15.27;13.00;;;6.40;99.90;;;;;;4969726;28;20250;-67
2021/10/12 05:49:36;;;;;;;13.50;11.57;;;6.40;99.90;;;;;;4970723;28;20555;-67
2021/10/12 05:52:07;;;;;;;13.95;11.27;;;6.40;99.90;;;;;;4971470;28;20678;-67
2021/10/12 05:54:46;;;;;;;12.98;11.35;;;6.20;99.90;;;;;;4968315;28;20240;-66
2021/10/12 05:57:24;;;;;;;12.52;10.35;;;6.30;99.90;;;;;;4970643;28;20231;-67
2021/10/12 05:59:54;;;;;;;14.75;11.25;;;6.40;99.90;;;;;;4971588;28;20228;-67
2021/10/12 06:02:25;;;;;;;14.35;10.05;;;6.30;99.90;;;;;;4966774;28;20595;-66
2021/10/12 06:04:56;;;;;;;14.07;11.07;;;6.30;99.90;;;;;;4971435;28;20233;-67
2021/10/12 06:07:27;;;;;;;11.60;9.98;;;6.30;99.90;;;;;;4951552;28;20243;-67
2021/10/12 06:09:59;;;;;;;11.20;10.13;;;6.20;99.90;;;;;;4971099;28;20212;-67
2021/10/12 06:12:30;;;;;;;14.10;12.57;;;6.20;99.90;;;;;;4979386;28;20231;-68
2021/10/12 06:15:01;;;;;;;13.85;11.40;;;6.10;99.90;;;;;;4972083;28;20221;-67
2021/10/12 06:17:31;;;;;;;23.13;16.70;;;6.00;99.90;;;;;;4964528;28;20224;-67
2021/10/12 06:20:02;;;;;;;25.67;15.93;;;6.00;99.90;;;;;;4967004;28;20235;-67
2021/10/12 06:22:33;;;;;;;26.00;17.17;;;6.00;99.90;;;;;;4968936;28;20243;-67
2021/10/12 06:25:06;;;;;;;27.77;16.85;;;6.00;99.90;;;;;;4966522;28;20252;-66
2021/10/12 06:27:37;;;;;;;22.50;15.43;;;5.90;99.90;;;;;;4970459;28;20220;-67
2021/10/12 06:30:09;;;;;;;20.05;12.10;;;5.90;99.90;;;;;;4967190;28;20216;-66
2021/10/12 06:32:40;;;;;;;13.98;11.30;;;5.90;99.90;;;;;;4962203;28;20743;-66
2021/10/12 06:35:11;;;;;;;12.32;11.00;;;5.90;99.90;;;;;;4970743;28;20219;-67
2021/10/12 06:37:42;;;;;;;11.15;9.35;;;5.90;99.90;;;;;;4963078;28;20220;-67
2021/10/12 06:40:15;;;;;;;15.70;13.32;;;5.90;99.90;;;;;;4970592;28;20255;-67
2021/10/12 06:42:46;;;;;;;17.67;13.55;;;5.80;99.90;;;;;;4963738;28;20209;-67
2021/10/12 06:45:18;;;;;;;13.63;12.27;;;5.80;99.90;;;;;;4968161;28;20252;-68
2021/10/12 06:47:50;;;;;;;21.27;14.00;;;5.80;99.90;;;;;;4965395;28;20220;-67
2021/10/12 06:50:22;;;;;;;17.00;12.43;;;5.70;99.90;;;;;;4966846;28;20251;-65
2021/10/12 06:52:53;;;;;;;18.02;12.05;;;5.60;99.90;;;;;;4968299;28;20212;-66
2021/10/12 06:55:27;;;;;;;13.02;11.60;;;5.60;99.90;;;;;;4966612;28;20636;-66
2021/10/12 06:57:57;;;;;;;14.63;12.85;;;5.60;99.90;;;;;;4969953;28;20215;-65
2021/10/12 07:00:28;;;;;;;15.00;11.68;;;5.70;99.90;;;;;;4970436;28;20216;-66
2021/10/12 07:03:00;;;;;;;13.38;9.90;;;5.60;99.90;;;;;;4969850;28;20230;-66
2021/10/12 07:05:30;;;;;;;12.98;10.50;;;5.60;99.90;;;;;;4970134;28;20239;-66
2021/10/12 07:08:01;;;;;;;15.60;10.85;;;5.50;99.90;;;;;;4969908;28;20220;-66
2021/10/12 07:10:34;;;;;;;11.77;10.27;;;5.60;99.90;;;;;;4970266;28;20216;-67
2021/10/12 07:13:04;;;;;;;14.02;10.13;;;5.50;99.90;;;;;;4956852;28;20322;-67
2021/10/12 07:15:35;;;;;;;13.52;10.70;;;5.40;99.90;;;;;;4965560;28;20561;-67
2021/10/12 07:18:06;;;;;;;13.18;11.77;;;5.40;99.90;;;;;;4965729;28;20271;-66
2021/10/12 07:20:39;;;;;;;13.27;11.40;;;5.40;99.90;;;;;;4970012;28;20255;-66
2021/10/12 07:23:09;;;;;;;12.00;9.85;;;5.50;99.90;;;;;;4964204;28;20229;-66
2021/10/12 07:25:42;;;;;;;14.20;12.75;;;5.50;99.90;;;;;;4962773;28;20232;-66
2021/10/12 07:28:13;;;;;;;12.57;10.48;;;5.40;99.90;;;;;;4969737;28;20216;-66
2021/10/12 07:30:44;;;;;;;11.65;10.45;;;5.40;99.90;;;;;;4962684;28;20224;-66
2021/10/12 07:33:14;;;;;;;13.90;11.48;;;5.40;99.90;;;;;;4968663;28;20595;-67
2021/10/12 07:35:58;;;;;;;12.93;11.05;;;5.40;99.90;;;;;;4963563;28;20213;-67
2021/10/12 07:38:29;;;;;;;11.73;10.05;;;5.40;99.90;;;;;;4968120;28;20213;-67
2021/10/12 07:41:01;;;;;;;15.90;11.23;;;5.30;99.90;;;;;;4970543;28;20326;-67
2021/10/12 07:43:36;;;;;;;13.20;9.10;;;5.30;99.90;;;;;;4961276;28;20682;-66
2021/10/12 07:46:07;;;;;;;12.95;10.43;;;5.20;99.90;;;;;;4969288;28;20311;-67
2021/10/12 07:48:38;;;;;;;12.52;10.48;;;5.10;99.90;;;;;;4960240;28;20649;-67
2021/10/12 07:51:09;;;;;;;11.07;9.48;;;5.10;99.90;;;;;;4968484;28;20216;-68
2021/10/12 07:53:40;;;;;;;13.30;10.48;;;5.10;99.90;;;;;;4964509;28;20229;-68
2021/10/12 07:56:17;;;;;;;13.82;9.93;;;5.10;99.90;;;;;;4944062;29;20212;-67
2021/10/12 07:58:50;;;;;;;15.00;9.65;;;5.10;99.90;;;;;;4950188;29;20710;-68
2021/10/12 08:01:20;;;;;;;10.82;9.73;;;5.10;99.90;;;;;;4950296;29;20217;-68
2021/10/12 08:03:51;;;;;;;11.25;10.07;;;5.00;99.90;;;;;;4949600;29;20601;-68
2021/10/12 08:06:22;;;;;;;12.10;10.38;;;5.00;99.90;;;;;;4939176;29;20314;-68
2021/10/12 08:08:53;;;;;;;12.15;9.65;;;5.00;99.90;;;;;;4939894;29;20232;-67
2021/10/12 08:11:28;;;;;;;13.32;10.10;;;5.00;99.90;;;;;;4947807;29;20221;-68
2021/10/12 08:14:01;;;;;;;12.23;10.45;;;5.00;99.90;;;;;;4942471;29;20216;-68
2021/10/12 08:16:32;;;;;;;11.65;9.98;;;4.90;99.90;;;;;;4947770;28;20213;-67
2021/10/12 08:19:05;;;;;;;12.20;9.70;;;4.90;99.90;;;;;;4945451;28;20221;-67
2021/10/12 08:21:36;;;;;;;13.15;10.13;;;4.80;99.90;;;;;;4941815;29;20692;-67
2021/10/12 08:24:07;;;;;;;13.57;9.70;;;4.80;99.90;;;;;;4950404;28;20229;-67
2021/10/12 08:26:39;;;;;;;14.88;10.23;;;4.70;99.90;;;;;;4953419;28;20239;-67
2021/10/12 08:29:10;;;;;;;11.52;10.35;;;4.70;99.90;;;;;;4945822;29;20666;-68
2021/10/12 08:31:41;;;;;;;11.77;10.63;;;4.70;99.90;;;;;;4951597;29;20217;-71
2021/10/12 08:34:13;;;;;;;12.45;10.57;;;4.70;99.90;;;;;;4953419;29;20225;-71
2021/10/12 08:36:44;;;;;;;12.32;10.30;;;4.80;99.90;;;;;;4947760;29;20684;-69
2021/10/12 08:39:14;;;;;;;13.13;10.85;;;4.70;99.90;;;;;;4953051;29;20221;-68
2021/10/12 08:41:52;;;;;;;10.52;8.77;;;4.70;99.90;;;;;;4951765;28;20291;-73
2021/10/12 08:44:23;;;;;;;13.85;9.40;;;4.70;99.90;;;;;;4951482;29;20243;-71
2021/10/12 08:46:55;;;;;;;10.50;8.70;;;4.60;99.90;;;;;;4945312;29;20597;-69
2021/10/12 08:49:26;;;;;;;12.25;9.65;;;4.70;99.90;;;;;;4947187;29;20248;-73
2021/10/12 08:51:58;;;;;;;11.30;9.90;;;4.70;99.90;;;;;;4948356;29;20305;-74
2021/10/12 08:54:29;;;;;;;10.52;9.43;;;4.60;99.90;;;;;;4957307;28;20241;-66
2021/10/12 08:57:02;;;;;;;11.00;9.30;;;4.60;99.90;;;;;;4972437;28;20628;-66
2021/10/12 08:59:33;;;;;;;11.88;9.43;;;4.50;99.90;;;;;;4964446;28;20220;-65
2021/10/12 09:02:06;;;;;;;14.50;10.65;;;4.50;99.90;;;;;;4972493;28;20217;-75
2021/10/12 09:04:41;;;;;;;11.63;10.35;;;4.40;99.90;;;;;;4970266;28;20275;-71
2021/10/12 09:07:19;;;;;;;12.43;9.63;;;4.50;99.90;;;;;;4970172;28;20314;-73
2021/10/12 09:09:51;;;;;;;15.45;10.23;;;4.40;99.90;;;;;;4971498;28;20227;-72
2021/10/12 09:12:41;;;;;;;11.93;9.90;;;4.40;99.90;;;;;;4970140;28;20220;-71
2021/10/12 09:15:12;;;;;;;13.05;10.07;;;4.40;99.90;;;;;;4972168;28;20224;-71
2021/10/12 09:17:46;;;;;;;16.23;10.38;;;4.40;99.90;;;;;;4967685;28;20229;-77
2021/10/12 09:20:33;;;;;;;17.75;10.80;;;4.40;99.90;;;;;;4966108;28;20216;-75
2021/10/12 09:23:09;;;;;;;12.77;10.07;;;4.30;99.90;;;;;;4966240;28;20223;-76
2021/10/12 09:25:42;;;;;;;11.80;10.38;;;4.30;99.90;;;;;;4964678;28;20238;-68
2021/10/12 09:28:27;;;;;;;11.45;9.98;;;4.20;99.90;;;;;;4971316;28;20224;-68
2021/10/12 09:30:58;;;;;;;11.63;10.55;;;4.20;99.90;;;;;;4969976;28;20224;-68
2021/10/12 09:33:29;;;;;;;11.65;10.20;;;4.20;99.90;;;;;;4970857;28;20236;-69
2021/10/12 09:36:00;;;;;;;9.63;8.70;;;4.20;99.90;;;;;;4970978;28;20216;-70
2021/10/12 09:38:31;;;;;;;10.85;9.38;;;4.10;99.90;;;;;;4968547;28;20370;-69
2021/10/12 09:41:08;;;;;;;11.60;10.50;;;4.20;99.90;;;;;;4971392;28;20560;-69
2021/10/12 09:43:41;;;;;;;12.23;9.80;;;4.20;99.90;;;;;;4968610;28;20224;-74
2021/10/12 09:46:28;;;;;;;11.68;10.07;;;4.10;99.90;;;;;;4967851;28;20232;-76
2021/10/12 09:49:15;;;;;;;11.73;9.43;;;4.10;99.90;;;;;;4971146;28;20231;-73
2021/10/12 09:52:04;;;;;;;11.35;9.35;;;4.10;99.90;;;;;;4971959;28;20220;-73
2021/10/12 09:54:37;;;;;;;11.07;9.00;;;4.10;99.90;;;;;;4958673;28;20236;-66
2021/10/12 09:57:09;;;;;;;12.25;10.20;;;4.10;99.90;;;;;;4950274;29;20654;-71
2021/10/12 09:59:41;;;;;;;13.20;9.88;;;4.00;99.90;;;;;;4952191;29;20217;-69
2021/10/12 10:02:16;;;;;;;12.30;10.50;;;4.00;99.90;;;;;;4945859;29;20628;-68
2021/10/12 10:04:47;;;;;;;10.43;9.45;;;4.00;99.90;;;;;;4952247;29;20222;-65
2021/10/12 10:07:22;;;;;;;11.27;9.60;;;4.00;99.90;;;;;;4958568;28;20233;-65
2021/10/12 10:09:56;;;;;;;11.52;10.15;;;4.00;99.90;;;;;;4945284;29;20217;-66
2021/10/12 10:12:28;;;;;;;11.73;9.30;;;3.90;99.90;;;;;;4949749;28;20221;-66
2021/10/12 10:15:00;;;;;;;10.98;9.88;;;4.00;99.90;;;;;;4951325;29;20216;-66
2021/10/12 10:17:33;;;;;;;12.02;10.05;;;4.00;99.90;;;;;;4938283;28;20225;-65
2021/10/12 10:20:07;;;;;;;11.75;9.32;;;3.90;99.90;;;;;;4951992;29;20213;-65
2021/10/12 10:22:44;;;;;;;15.32;10.57;;;3.80;99.90;;;;;;4950945;28;20236;-65
2021/10/12 10:25:30;;;;;;;11.15;9.93;;;3.90;99.90;;;;;;4949450;28;20228;-66
2021/10/12 10:28:24;;;;;;;10.63;9.10;;;3.90;99.90;;;;;;4951049;29;20643;-65
2021/10/12 10:30:59;;;;;;;11.75;9.80;;;3.80;99.90;;;;;;4950812;28;20229;-65
2021/10/12 10:33:31;;;;;;;10.80;9.70;;;3.80;99.90;;;;;;4947890;28;20221;-66
2021/10/12 10:36:04;;;;;;;10.90;9.80;;;3.80;99.90;;;;;;4951619;29;20217;-65
2021/10/12 10:38:42;;;;;;;14.00;10.90;;;3.80;99.90;;;;;;4950581;28;20227;-65
2021/10/12 10:41:26;;;;;;;12.15;9.50;;;3.70;99.90;;;;;;4948311;28;20651;-66
2021/10/12 10:44:02;;;;;;;11.43;10.30;;;3.70;99.90;;;;;;4946858;29;20220;-65
2021/10/12 10:46:45;;;;;;;10.82;9.60;;;3.70;99.90;;;;;;4948466;28;20336;-65
2021/10/12 10:49:18;;;;;;;12.98;10.80;;;3.70;99.90;;;;;;4948118;28;20312;-65
2021/10/12 10:51:51;;;;;;;11.95;10.75;;;3.70;99.90;;;;;;4949340;29;20324;-65
2021/10/12 10:55:04;;;;;;;11.05;9.85;;;3.70;99.90;;;;;;4958382;28;20244;-65
2021/10/12 10:57:35;;;;;;;11.80;10.77;;;3.70;99.90;;;;;;4969791;28;20262;-65
2021/10/12 11:00:31;;;;;;;13.50;11.10;;;3.70;99.90;;;;;;4970750;28;20220;-65
2021/10/12 11:03:04;;;;;;;10.10;9.10;;;3.60;99.90;;;;;;4951294;28;20594;-65
2021/10/12 11:05:47;;;;;;;11.25;10.15;;;3.50;99.90;;;;;;4970202;28;20220;-65
2021/10/12 11:08:21;;;;;;;11.45;10.20;;;3.60;99.90;;;;;;4969506;28;20725;-65
2021/10/12 11:10:57;;;;;;;11.52;10.43;;;3.60;99.90;;;;;;4969606;28;20533;-65
2021/10/12 11:13:36;;;;;;;11.07;9.93;;;3.60;99.90;;;;;;4968866;28;20239;-65
2021/10/12 11:16:09;;;;;;;11.02;9.93;;;3.50;99.90;;;;;;4970365;28;20220;-65
2021/10/12 11:18:44;;;;;;;10.82;9.48;;;3.40;99.90;;;;;;4964305;28;20294;-65
2021/10/12 11:21:16;;;;;;;11.27;8.90;;;3.40;99.90;;;;;;4967232;28;20698;-65
2021/10/12 11:23:51;;;;;;;10.38;8.48;;;3.20;99.90;;;;;;4967967;28;20249;-64
2021/10/12 11:26:24;;;;;;;11.50;10.00;;;3.30;99.90;;;;;;4967390;28;20574;-64
2021/10/12 11:28:57;;;;;;;10.63;9.25;;;3.40;99.90;;;;;;4970235;28;20220;-65
2021/10/12 11:31:29;;;;;;;11.65;9.77;;;3.40;99.90;;;;;;4958698;28;20227;-65
2021/10/12 11:34:03;;;;;;;10.57;9.25;;;3.40;99.90;;;;;;4968452;28;20212;-64
2021/10/12 11:36:34;;;;;;;10.43;9.48;;;3.30;99.90;;;;;;4968435;28;20602;-64
2021/10/12 11:39:08;;;;;;;9.75;8.85;;;3.30;99.90;;;;;;4969508;28;20236;-64
2021/10/12 11:41:40;;;;;;;9.73;8.73;;;3.30;99.90;;;;;;4968764;28;20295;-64
2021/10/12 11:44:18;;;;;;;11.95;9.35;;;3.30;99.90;;;;;;4966860;28;20311;-64
2021/10/12 11:46:51;;;;;;;10.55;9.50;;;3.30;99.90;;;;;;4966090;28;20315;-65
2021/10/12 11:49:24;;;;;;;9.70;8.52;;;3.30;99.90;;;;;;4974671;28;20575;-65
2021/10/12 11:51:55;;;;;;;10.70;9.57;;;3.20;99.90;;;;;;4969189;28;20227;-65
2021/10/12 11:54:26;;;;;;;8.77;7.93;;;3.20;99.90;;;;;;4956288;28;20710;-65
2021/10/12 11:56:57;;;;;;;10.23;8.27;;;3.10;99.90;;;;;;4950637;28;20260;-65
2021/10/12 11:59:34;;;;;;;11.20;9.23;;;3.10;99.90;;;;;;4945736;28;20244;-65
2021/10/12 12:02:08;;;;;;;12.07;8.55;;;3.20;99.90;;;;;;4953900;28;20555;-65
2021/10/12 12:04:40;;;;;;;10.95;8.93;;;3.20;99.90;;;;;;4951746;28;20256;-65
2021/10/12 12:07:12;;;;;;;11.23;8.20;;;3.20;99.90;;;;;;4945989;28;20245;-65
2021/10/12 12:09:47;;;;;;;9.35;8.38;;;3.20;99.90;;;;;;4951176;29;20217;-65
2021/10/12 12:12:17;;;;;;;13.80;9.05;;;3.30;99.90;;;;;;4951938;29;20220;-65
2021/10/12 12:14:51;;;;;;;9.70;8.70;;;3.40;99.90;;;;;;4950883;29;20247;-65
2021/10/12 12:17:24;;;;;;;9.60;8.25;;;3.60;99.90;;;;;;4954929;28;20225;-65
2021/10/12 12:19:58;;;;;;;10.35;9.35;;;3.70;99.90;;;;;;4954039;29;20225;-64
2021/10/12 12:22:31;;;;;;;9.23;8.20;;;3.80;99.90;;;;;;4952334;29;20542;-65
2021/10/12 12:25:06;;;;;;;10.20;8.43;;;3.90;99.90;;;;;;4948133;29;20221;-66
2021/10/12 12:27:53;;;;;;;10.13;8.57;;;3.90;99.90;;;;;;4949782;29;20251;-65
2021/10/12 12:30:33;;;;;;;9.40;8.32;;;4.10;99.90;;;;;;4952710;29;20227;-65
2021/10/12 12:33:05;;;;;;;9.90;7.90;;;4.20;99.90;;;;;;4945150;29;20759;-65
2021/10/12 12:35:42;;;;;;;9.93;7.97;;;4.30;99.90;;;;;;4953053;29;20213;-65
2021/10/12 12:38:13;;;;;;;8.73;7.82;;;4.40;99.90;;;;;;4952239;29;20213;-65
2021/10/12 12:40:47;;;;;;;10.55;7.97;;;4.50;99.90;;;;;;4953445;29;20220;-65
2021/10/12 12:43:19;;;;;;;13.25;8.45;;;4.60;99.90;;;;;;4951039;28;20227;-65
2021/10/12 12:46:08;;;;;;;9.15;8.35;;;4.60;99.90;;;;;;4953022;29;20236;-65
2021/10/12 12:48:40;;;;;;;9.70;7.95;;;4.60;99.90;;;;;;4950210;28;20664;-65
2021/10/12 12:51:14;;;;;;;8.73;7.57;;;4.70;99.90;;;;;;4953421;29;20209;-65
2021/10/12 12:53:47;;;;;;;8.48;7.50;;;4.70;99.90;;;;;;4936112;29;20228;-66
2021/10/12 12:56:22;;;;;;;10.10;8.93;;;4.80;99.90;;;;;;4972195;28;20220;-65
2021/10/12 12:58:53;;;;;;;10.45;8.02;;;4.70;99.90;;;;;;4970066;28;20224;-65
2021/10/12 13:01:26;;;;;;;9.23;7.97;;;4.80;99.90;;;;;;4968948;28;20231;-65
2021/10/12 13:03:57;;;;;;;8.27;7.47;;;4.70;99.90;;;;;;4969843;28;20311;-65
2021/10/12 13:06:30;;;;;;;10.40;8.68;;;4.70;99.90;;;;;;4972146;28;20231;-64
2021/10/12 13:09:03;;;;;;;8.75;7.82;;;4.60;99.90;;;;;;4968389;28;20233;-64
2021/10/12 13:11:38;;;;;;;8.50;7.65;;;4.60;99.90;;;;;;4971458;28;20659;-65
2021/10/12 13:14:08;;;;;;;10.02;7.93;;;4.50;99.90;;;;;;4964527;28;20216;-65